sensor_id;sensor_type;location;lat;lon;timestamp;pressure;altitude;pressure_sealevel;temperature;humidity
52535;BME280;38443;53.164;5.802;2022-11-20T00:01:48;101578.91;;;-2.25;97.36
52535;BME280;38443;53.164;5.802;2022-11-20T00:04:14;101574.56;;;-2.25;97.41
52535;BME280;38443;53.164;5.802;2022-11-20T00:06:39;101578.13;;;-2.23;97.32
52535;BME280;38443;53.164;5.802;2022-11-20T00:09:05;101567.75;;;-2.19;97.57
52535;BME280;38443;53.164;5.802;2022-11-20T00:11:31;101574.75;;;-2.20;97.58
52535;BME280;38443;53.164;5.802;2022-11-20T00:14:00;101571.22;;;-2.21;97.44
52535;BME280;38443;53.164;5.802;2022-11-20T00:16:27;101563.31;;;-2.22;97.42
52535;BME280;38443;53.164;5.802;2022-11-20T00:18:53;101571.13;;;-2.24;97.18
52535;BME280;38443;53.164;5.802;2022-11-20T00:21:24;101560.63;;;-2.24;97.43
52535;BME280;38443;53.164;5.802;2022-11-20T00:23:51;101550.94;;;-2.26;97.40
52535;BME280;38443;53.164;5.802;2022-11-20T00:26:19;101550.03;;;-2.27;97.20
52535;BME280;38443;53.164;5.802;2022-11-20T00:28:50;101549.13;;;-2.27;97.21
52535;BME280;38443;53.164;5.802;2022-11-20T00:31:16;101549.06;;;-2.29;97.42
52535;BME280;38443;53.164;5.802;2022-11-20T00:33:43;101544.56;;;-2.33;97.14
52535;BME280;38443;53.164;5.802;2022-11-20T00:36:17;101544.47;;;-2.36;97.49
52535;BME280;38443;53.164;5.802;2022-11-20T00:38:43;101538.16;;;-2.41;97.45
52535;BME280;38443;53.164;5.802;2022-11-20T00:41:11;101539.03;;;-2.42;97.44
52535;BME280;38443;53.164;5.802;2022-11-20T00:43:37;101546.03;;;-2.41;97.79
52535;BME280;38443;53.164;5.802;2022-11-20T00:46:08;101539.09;;;-2.41;97.57
52535;BME280;38443;53.164;5.802;2022-11-20T00:48:34;101546.91;;;-2.42;97.91
52535;BME280;38443;53.164;5.802;2022-11-20T00:50:59;101545.09;;;-2.43;97.90
52535;BME280;38443;53.164;5.802;2022-11-20T00:53:25;101540.69;;;-2.44;98.26
52535;BME280;38443;53.164;5.802;2022-11-20T00:55:58;101552.97;;;-2.43;98.15
52535;BME280;38443;53.164;5.802;2022-11-20T00:58:25;101536.47;;;-2.41;98.41
52535;BME280;38443;53.164;5.802;2022-11-20T01:00:59;101539.25;;;-2.36;98.50
52535;BME280;38443;53.164;5.802;2022-11-20T01:03:26;101540.13;;;-2.35;98.23
52535;BME280;38443;53.164;5.802;2022-11-20T01:05:51;101546.31;;;-2.33;98.02
52535;BME280;38443;53.164;5.802;2022-11-20T01:08:16;101546.44;;;-2.30;98.01
52535;BME280;38443;53.164;5.802;2022-11-20T01:10:42;101541.22;;;-2.29;97.98
52535;BME280;38443;53.164;5.802;2022-11-20T01:13:07;101535.22;;;-2.26;98.21
52535;BME280;38443;53.164;5.802;2022-11-20T01:15:51;101534.41;;;-2.24;98.27
52535;BME280;38443;53.164;5.802;2022-11-20T01:18:16;101537.97;;;-2.22;98.36
52535;BME280;38443;53.164;5.802;2022-11-20T01:20:42;101534.41;;;-2.24;97.93
52535;BME280;38443;53.164;5.802;2022-11-20T01:23:07;101538.72;;;-2.26;98.22
52535;BME280;38443;53.164;5.802;2022-11-20T01:25:34;101538.66;;;-2.27;97.92
52535;BME280;38443;53.164;5.802;2022-11-20T01:27:59;101537.78;;;-2.28;98.24
52535;BME280;38443;53.164;5.802;2022-11-20T01:30:25;101527.34;;;-2.26;98.05
52535;BME280;38443;53.164;5.802;2022-11-20T01:32:50;101523.84;;;-2.25;98.10
52535;BME280;38443;53.164;5.802;2022-11-20T01:35:16;101529.16;;;-2.24;98.02
52535;BME280;38443;53.164;5.802;2022-11-20T01:37:41;101518.69;;;-2.24;98.64
52535;BME280;38443;53.164;5.802;2022-11-20T01:40:07;101525.66;;;-2.24;98.39
52535;BME280;38443;53.164;5.802;2022-11-20T01:42:32;101516.78;;;-2.28;98.31
52535;BME280;38443;53.164;5.802;2022-11-20T01:45:46;101506.94;;;-2.35;98.18
52535;BME280;38443;53.164;5.802;2022-11-20T01:48:17;101510.41;;;-2.36;98.32
52535;BME280;38443;53.164;5.802;2022-11-20T01:50:43;101507.84;;;-2.34;98.30
52535;BME280;38443;53.164;5.802;2022-11-20T01:53:12;101516.59;;;-2.34;98.20
52535;BME280;38443;53.164;5.802;2022-11-20T01:55:45;101521.78;;;-2.35;98.41
52535;BME280;38443;53.164;5.802;2022-11-20T01:58:12;101526.94;;;-2.37;98.51
52535;BME280;38443;53.164;5.802;2022-11-20T02:00:40;101519.94;;;-2.38;98.43
52535;BME280;38443;53.164;5.802;2022-11-20T02:03:09;101509.47;;;-2.38;98.34
52535;BME280;38443;53.164;5.802;2022-11-20T02:08:19;101506.94;;;-2.35;98.84
52535;BME280;38443;53.164;5.802;2022-11-20T02:10:45;101510.41;;;-2.36;98.67
52535;BME280;38443;53.164;5.802;2022-11-20T02:13:10;101510.41;;;-2.36;98.71
52535;BME280;38443;53.164;5.802;2022-11-20T02:15:54;101494.66;;;-2.36;98.77
52535;BME280;38443;53.164;5.802;2022-11-20T02:18:23;101502.63;;;-2.33;98.92
52535;BME280;38443;53.164;5.802;2022-11-20T02:20:53;101491.25;;;-2.33;98.49
52535;BME280;38443;53.164;5.802;2022-11-20T02:23:28;101495.63;;;-2.34;98.46
52535;BME280;38443;53.164;5.802;2022-11-20T02:25:58;101489.50;;;-2.33;98.91
52535;BME280;38443;53.164;5.802;2022-11-20T02:28:25;101486.13;;;-2.30;98.83
52535;BME280;38443;53.164;5.802;2022-11-20T02:30:50;101480.03;;;-2.29;98.82
52535;BME280;38443;53.164;5.802;2022-11-20T02:33:15;101476.59;;;-2.28;98.54
52535;BME280;38443;53.164;5.802;2022-11-20T02:35:45;101486.22;;;-2.27;98.23
52535;BME280;38443;53.164;5.802;2022-11-20T02:38:11;101484.47;;;-2.27;98.17
52535;BME280;38443;53.164;5.802;2022-11-20T02:40:37;101485.38;;;-2.26;98.25
52535;BME280;38443;53.164;5.802;2022-11-20T02:43:03;101479.22;;;-2.27;98.04
52535;BME280;38443;53.164;5.802;2022-11-20T02:45:28;101479.34;;;-2.24;98.01
52535;BME280;38443;53.164;5.802;2022-11-20T02:47:53;101466.31;;;-2.21;98.16
52535;BME280;38443;53.164;5.802;2022-11-20T02:50:19;101476.94;;;-2.17;97.97
52535;BME280;38443;53.164;5.802;2022-11-20T02:52:45;101470.00;;;-2.15;98.22
52535;BME280;38443;53.164;5.802;2022-11-20T02:55:11;101463.94;;;-2.14;98.12
52535;BME280;38443;53.164;5.802;2022-11-20T02:57:36;101456.94;;;-2.14;97.93
52535;BME280;38443;53.164;5.802;2022-11-20T03:02:45;101458.72;;;-2.13;98.09
52535;BME280;38443;53.164;5.802;2022-11-20T03:05:10;101455.16;;;-2.15;98.03
52535;BME280;38443;53.164;5.802;2022-11-20T03:07:36;101461.31;;;-2.14;97.97
52535;BME280;38443;53.164;5.802;2022-11-20T03:10:01;101463.06;;;-2.13;98.30
52535;BME280;38443;53.164;5.802;2022-11-20T03:12:28;101466.56;;;-2.13;97.98
52535;BME280;38443;53.164;5.802;2022-11-20T03:14:54;101466.63;;;-2.11;98.15
52535;BME280;38443;53.164;5.802;2022-11-20T03:17:19;101465.00;;;-2.08;98.40
52535;BME280;38443;53.164;5.802;2022-11-20T03:19:45;101470.31;;;-2.06;98.33
52535;BME280;38443;53.164;5.802;2022-11-20T03:22:10;101459.81;;;-2.06;98.32
52535;BME280;38443;53.164;5.802;2022-11-20T03:24:35;101454.59;;;-2.05;98.06
52535;BME280;38443;53.164;5.802;2022-11-20T03:27:00;101447.66;;;-2.03;98.04
52535;BME280;38443;53.164;5.802;2022-11-20T03:29:26;101442.59;;;-1.98;98.26
52535;BME280;38443;53.164;5.802;2022-11-20T03:31:51;101435.59;;;-1.97;98.17
52535;BME280;38443;53.164;5.802;2022-11-20T03:34:16;101434.78;;;-1.96;98.26
52535;BME280;38443;53.164;5.802;2022-11-20T03:36:42;101429.47;;;-1.98;97.93
52535;BME280;38443;53.164;5.802;2022-11-20T03:39:08;101427.69;;;-1.99;98.05
52535;BME280;38443;53.164;5.802;2022-11-20T03:41:37;101427.59;;;-2.02;97.90
52535;BME280;38443;53.164;5.802;2022-11-20T03:44:05;101429.16;;;-2.07;98.06
52535;BME280;38443;53.164;5.802;2022-11-20T03:46:31;101426.41;;;-2.12;97.72
52535;BME280;38443;53.164;5.802;2022-11-20T03:48:57;101421.84;;;-2.17;97.73
52535;BME280;38443;53.164;5.802;2022-11-20T03:51:28;101419.88;;;-2.25;97.65
52535;BME280;38443;53.164;5.802;2022-11-20T03:53:55;101414.44;;;-2.31;97.85
52535;BME280;38443;53.164;5.802;2022-11-20T03:56:27;101403.81;;;-2.35;97.71
52535;BME280;38443;53.164;5.802;2022-11-20T03:58:53;101406.22;;;-2.42;97.84
52535;BME280;38443;53.164;5.802;2022-11-20T04:01:22;101406.91;;;-2.47;97.74
52535;BME280;38443;53.164;5.802;2022-11-20T04:03:48;101404.09;;;-2.53;97.99
52535;BME280;38443;53.164;5.802;2022-11-20T04:06:16;101399.66;;;-2.56;97.79
52535;BME280;38443;53.164;5.802;2022-11-20T04:08:42;101397.78;;;-2.60;97.92
52535;BME280;38443;53.164;5.802;2022-11-20T04:11:18;101393.34;;;-2.61;98.17
52535;BME280;38443;53.164;5.802;2022-11-20T04:13:49;101386.28;;;-2.64;98.39
52535;BME280;38443;53.164;5.802;2022-11-20T04:16:15;101383.63;;;-2.65;98.24
52535;BME280;38443;53.164;5.802;2022-11-20T04:18:40;101380.16;;;-2.64;98.37
52535;BME280;38443;53.164;5.802;2022-11-20T04:21:06;101376.63;;;-2.65;98.17
52535;BME280;38443;53.164;5.802;2022-11-20T04:23:31;101378.31;;;-2.67;98.52
52535;BME280;38443;53.164;5.802;2022-11-20T04:26:15;101369.50;;;-2.70;98.40
52535;BME280;38443;53.164;5.802;2022-11-20T04:28:41;101363.25;;;-2.74;98.52
52535;BME280;38443;53.164;5.802;2022-11-20T04:31:14;101361.38;;;-2.78;98.31
52535;BME280;38443;53.164;5.802;2022-11-20T04:33:40;101361.16;;;-2.84;98.24
52535;BME280;38443;53.164;5.802;2022-11-20T04:38:33;101373.00;;;-2.95;98.15
52535;BME280;38443;53.164;5.802;2022-11-20T04:40:59;101371.91;;;-3.02;98.05
52535;BME280;38443;53.164;5.802;2022-11-20T04:43:25;101373.53;;;-3.06;98.38
52535;BME280;38443;53.164;5.802;2022-11-20T04:45:52;101365.53;;;-3.09;98.49
52535;BME280;38443;53.164;5.802;2022-11-20T04:48:17;101372.47;;;-3.11;98.83
52535;BME280;38443;53.164;5.802;2022-11-20T04:50:43;101372.47;;;-3.11;98.92
52535;BME280;38443;53.164;5.802;2022-11-20T04:53:11;101371.56;;;-3.11;98.72
52535;BME280;38443;53.164;5.802;2022-11-20T04:55:36;101363.66;;;-3.13;98.52
52535;BME280;38443;53.164;5.802;2022-11-20T04:58:02;101372.38;;;-3.14;98.58
52535;BME280;38443;53.164;5.802;2022-11-20T05:00:27;101366.19;;;-3.16;98.78
52535;BME280;38443;53.164;5.802;2022-11-20T05:02:53;101369.59;;;-3.18;98.82
52535;BME280;38443;53.164;5.802;2022-11-20T05:05:19;101357.28;;;-3.21;98.46
52535;BME280;38443;53.164;5.802;2022-11-20T05:07:44;101351.09;;;-3.23;98.60
52535;BME280;38443;53.164;5.802;2022-11-20T05:10:09;101348.38;;;-3.26;98.36
52535;BME280;38443;53.164;5.802;2022-11-20T05:12:35;101350.00;;;-3.30;98.29
52535;BME280;38443;53.164;5.802;2022-11-20T05:15:00;101346.38;;;-3.33;98.35
52535;BME280;38443;53.164;5.802;2022-11-20T05:17:25;101343.75;;;-3.33;98.33
52535;BME280;38443;53.164;5.802;2022-11-20T05:19:50;101336.69;;;-3.36;98.41
52535;BME280;38443;53.164;5.802;2022-11-20T05:22:16;101334.09;;;-3.36;98.31
52535;BME280;38443;53.164;5.802;2022-11-20T05:24:41;101342.00;;;-3.34;98.28
52535;BME280;38443;53.164;5.802;2022-11-20T05:27:06;101341.09;;;-3.35;98.29
52535;BME280;38443;53.164;5.802;2022-11-20T05:29:32;101339.38;;;-3.34;98.34
52535;BME280;38443;53.164;5.802;2022-11-20T05:31:57;101333.22;;;-3.35;98.13
52535;BME280;38443;53.164;5.802;2022-11-20T05:34:22;101329.13;;;-3.28;98.17
52535;BME280;38443;53.164;5.802;2022-11-20T05:36:47;101323.03;;;-3.27;98.07
52535;BME280;38443;53.164;5.802;2022-11-20T05:39:13;101323.88;;;-3.28;97.98
52535;BME280;38443;53.164;5.802;2022-11-20T05:41:38;101316.03;;;-3.28;98.12
52535;BME280;38443;53.164;5.802;2022-11-20T05:44:03;101324.78;;;-3.28;97.83
52535;BME280;38443;53.164;5.802;2022-11-20T05:46:29;101328.19;;;-3.30;97.85
52535;BME280;38443;53.164;5.802;2022-11-20T05:48:54;101332.50;;;-3.31;97.81
52535;BME280;38443;53.164;5.802;2022-11-20T05:51:20;101322.09;;;-3.29;98.30
52535;BME280;38443;53.164;5.802;2022-11-20T05:53:46;101328.31;;;-3.26;98.33
52535;BME280;38443;53.164;5.802;2022-11-20T05:56:14;101324.91;;;-3.23;98.54
52535;BME280;38443;53.164;5.802;2022-11-20T05:58:40;101321.34;;;-3.25;98.38
52535;BME280;38443;53.164;5.802;2022-11-20T06:03:32;101332.34;;;-3.35;98.05
52535;BME280;38443;53.164;5.802;2022-11-20T06:05:58;101341.72;;;-3.42;97.70
52535;BME280;38443;53.164;5.802;2022-11-20T06:08:24;101330.16;;;-3.49;97.89
52535;BME280;38443;53.164;5.802;2022-11-20T06:10:49;101338.81;;;-3.50;97.89
52535;BME280;38443;53.164;5.802;2022-11-20T06:13:14;101337.00;;;-3.52;97.77
52535;BME280;38443;53.164;5.802;2022-11-20T06:15:40;101332.78;;;-3.49;97.90
52535;BME280;38443;53.164;5.802;2022-11-20T06:18:05;101331.91;;;-3.48;98.12
52535;BME280;38443;53.164;5.802;2022-11-20T06:20:30;101332.81;;;-3.47;98.55
52535;BME280;38443;53.164;5.802;2022-11-20T06:22:55;101340.66;;;-3.47;98.39
52535;BME280;38443;53.164;5.802;2022-11-20T06:25:21;101335.31;;;-3.50;98.53
52535;BME280;38443;53.164;5.802;2022-11-20T06:27:46;101333.44;;;-3.54;98.29
52535;BME280;38443;53.164;5.802;2022-11-20T06:30:11;101331.56;;;-3.57;98.10
52535;BME280;38443;53.164;5.802;2022-11-20T06:32:37;101328.00;;;-3.59;98.18
52535;BME280;38443;53.164;5.802;2022-11-20T06:35:02;101328.88;;;-3.60;98.24
52535;BME280;38443;53.164;5.802;2022-11-20T06:37:27;101334.91;;;-3.61;98.10
52535;BME280;38443;53.164;5.802;2022-11-20T06:39:53;101325.31;;;-3.62;98.19
52535;BME280;38443;53.164;5.802;2022-11-20T06:42:18;101323.63;;;-3.60;98.39
52535;BME280;38443;53.164;5.802;2022-11-20T06:44:43;101328.06;;;-3.57;98.65
52535;BME280;38443;53.164;5.802;2022-11-20T06:47:09;101328.97;;;-3.57;98.74
52535;BME280;38443;53.164;5.802;2022-11-20T06:49:34;101326.34;;;-3.57;99.01
52535;BME280;38443;53.164;5.802;2022-11-20T06:51:59;101328.00;;;-3.59;99.01
52535;BME280;38443;53.164;5.802;2022-11-20T06:54:25;101326.25;;;-3.60;98.92
52535;BME280;38443;53.164;5.802;2022-11-20T06:56:50;101328.75;;;-3.63;99.18
52535;BME280;38443;53.164;5.802;2022-11-20T06:59:15;101323.50;;;-3.63;99.11
52535;BME280;38443;53.164;5.802;2022-11-20T07:01:41;101320.91;;;-3.63;99.56
52535;BME280;38443;53.164;5.802;2022-11-20T07:04:07;101320.91;;;-3.63;99.60
52535;BME280;38443;53.164;5.802;2022-11-20T07:06:32;101320.06;;;-3.62;99.47
52535;BME280;38443;53.164;5.802;2022-11-20T07:08:58;101317.63;;;-3.57;99.57
52535;BME280;38443;53.164;5.802;2022-11-20T07:11:23;101330.09;;;-3.50;99.91
52535;BME280;38443;53.164;5.802;2022-11-20T07:13:49;101326.69;;;-3.48;99.75
52535;BME280;38443;53.164;5.802;2022-11-20T07:16:14;101330.31;;;-3.44;99.58
52535;BME280;38443;53.164;5.802;2022-11-20T07:18:39;101333.81;;;-3.44;99.78
52535;BME280;38443;53.164;5.802;2022-11-20T07:21:09;101326.97;;;-3.40;99.98
52535;BME280;38443;53.164;5.802;2022-11-20T07:23:35;101324.50;;;-3.35;99.65
52535;BME280;38443;53.164;5.802;2022-11-20T07:26:08;101321.16;;;-3.31;99.75
52535;BME280;38443;53.164;5.802;2022-11-20T07:28:35;101321.28;;;-3.28;99.69
52535;BME280;38443;53.164;5.802;2022-11-20T07:31:00;101312.69;;;-3.24;99.51
52535;BME280;38443;53.164;5.802;2022-11-20T07:33:26;101309.38;;;-3.18;99.76
52535;BME280;38443;53.164;5.802;2022-11-20T07:35:51;101308.69;;;-3.13;100.00
52535;BME280;38443;53.164;5.802;2022-11-20T07:38:16;101307.06;;;-3.09;100.00
52535;BME280;38443;53.164;5.802;2022-11-20T07:40:41;101303.72;;;-3.05;100.00
52535;BME280;38443;53.164;5.802;2022-11-20T07:43:07;101308.13;;;-3.04;100.00
52535;BME280;38443;53.164;5.802;2022-11-20T07:45:32;101309.13;;;-3.01;100.00
52535;BME280;38443;53.164;5.802;2022-11-20T07:47:57;101309.19;;;-2.97;100.00
52535;BME280;38443;53.164;5.802;2022-11-20T07:50:23;101292.66;;;-2.96;100.00
52535;BME280;38443;53.164;5.802;2022-11-20T07:52:48;101296.31;;;-2.91;100.00
52535;BME280;38443;53.164;5.802;2022-11-20T07:55:14;101299.19;;;-2.84;100.00
52535;BME280;38443;53.164;5.802;2022-11-20T07:57:39;101281.72;;;-2.83;100.00
52535;BME280;38443;53.164;5.802;2022-11-20T08:00:05;101290.50;;;-2.83;100.00
52535;BME280;38443;53.164;5.802;2022-11-20T08:02:37;101288.75;;;-2.82;100.00
52535;BME280;38443;53.164;5.802;2022-11-20T08:05:04;101282.91;;;-2.73;100.00
52535;BME280;38443;53.164;5.802;2022-11-20T08:07:38;101284.72;;;-2.71;100.00
52535;BME280;38443;53.164;5.802;2022-11-20T08:10:04;101285.47;;;-2.76;100.00
52535;BME280;38443;53.164;5.802;2022-11-20T08:12:29;101291.38;;;-2.82;100.00
52535;BME280;38443;53.164;5.802;2022-11-20T08:15:27;101291.38;;;-2.82;100.00
52535;BME280;38443;53.164;5.802;2022-11-20T08:17:59;101307.28;;;-2.76;100.00
52535;BME280;38443;53.164;5.802;2022-11-20T08:20:24;101295.22;;;-2.71;100.00
52535;BME280;38443;53.164;5.802;2022-11-20T08:22:49;101291.97;;;-2.64;100.00
52535;BME280;38443;53.164;5.802;2022-11-20T08:25:15;101289.59;;;-2.56;100.00
52535;BME280;38443;53.164;5.802;2022-11-20T08:27:40;101276.44;;;-2.57;100.00
52535;BME280;38443;53.164;5.802;2022-11-20T08:30:05;101280.78;;;-2.58;100.00
52535;BME280;38443;53.164;5.802;2022-11-20T08:32:31;101283.41;;;-2.58;100.00
52535;BME280;38443;53.164;5.802;2022-11-20T08:34:56;101285.22;;;-2.55;100.00
52535;BME280;38443;53.164;5.802;2022-11-20T08:37:21;101295.03;;;-2.50;100.00
52535;BME280;38443;53.164;5.802;2022-11-20T08:39:47;101297.03;;;-2.41;100.00
52535;BME280;38443;53.164;5.802;2022-11-20T08:42:12;101292.06;;;-2.32;100.00
52535;BME280;38443;53.164;5.802;2022-11-20T08:44:37;101292.19;;;-2.27;99.60
52535;BME280;38443;53.164;5.802;2022-11-20T08:47:03;101279.16;;;-2.26;98.48
52535;BME280;38443;53.164;5.802;2022-11-20T08:49:28;101281.00;;;-2.22;98.02
52535;BME280;38443;53.164;5.802;2022-11-20T08:51:53;101278.63;;;-2.14;97.92
52535;BME280;38443;53.164;5.802;2022-11-20T08:54:20;101280.38;;;-2.13;97.45
52535;BME280;38443;53.164;5.802;2022-11-20T08:56:47;101274.25;;;-2.13;97.09
52535;BME280;38443;53.164;5.802;2022-11-20T08:59:12;101283.91;;;-2.12;96.62
52535;BME280;38443;53.164;5.802;2022-11-20T09:01:38;101277.88;;;-2.10;96.63
52535;BME280;38443;53.164;5.802;2022-11-20T09:04:04;101269.31;;;-2.03;96.85
52535;BME280;38443;53.164;5.802;2022-11-20T09:06:30;101269.53;;;-1.96;96.80
52535;BME280;38443;53.164;5.802;2022-11-20T09:08:55;101266.97;;;-1.93;96.66
52535;BME280;38443;53.164;5.802;2022-11-20T09:11:22;101270.63;;;-1.87;96.86
52535;BME280;38443;53.164;5.802;2022-11-20T09:13:47;101271.75;;;-1.78;96.91
52535;BME280;38443;53.164;5.802;2022-11-20T09:16:12;101275.50;;;-1.70;96.78
52535;BME280;38443;53.164;5.802;2022-11-20T09:18:38;101271.47;;;-1.57;96.92
52535;BME280;38443;53.164;5.802;2022-11-20T09:21:05;101276.19;;;-1.44;96.95
52535;BME280;38443;53.164;5.802;2022-11-20T09:23:32;101269.63;;;-1.28;97.07
52535;BME280;38443;53.164;5.802;2022-11-20T09:26:02;101263.81;;;-1.15;97.21
52535;BME280;38443;53.164;5.802;2022-11-20T09:28:28;101268.53;;;-1.02;96.39
52535;BME280;38443;53.164;5.802;2022-11-20T09:30:53;101259.22;;;-0.87;96.81
52535;BME280;38443;53.164;5.802;2022-11-20T09:33:18;101268.19;;;-0.79;95.75
52535;BME280;38443;53.164;5.802;2022-11-20T09:35:44;101261.31;;;-0.72;95.13
52535;BME280;38443;53.164;5.802;2022-11-20T09:38:10;101251.06;;;-0.62;95.15
52535;BME280;38443;53.164;5.802;2022-11-20T09:40:39;101264.53;;;-0.48;94.93
52535;BME280;38443;53.164;5.802;2022-11-20T09:45:53;101256.47;;;-0.14;93.25
52535;BME280;38443;53.164;5.802;2022-11-20T09:51:15;101253.34;;;0.02;93.06
52535;BME280;38443;53.164;5.802;2022-11-20T09:56:19;101249.63;;;-0.08;92.39
52535;BME280;38443;53.164;5.802;2022-11-20T09:58:49;101243.41;;;-0.11;92.62
52535;BME280;38443;53.164;5.802;2022-11-20T10:01:21;101246.75;;;-0.18;92.26
52535;BME280;38443;53.164;5.802;2022-11-20T10:04:15;101244.16;;;-0.17;92.69
52535;BME280;38443;53.164;5.802;2022-11-20T10:06:49;101239.75;;;-0.18;92.10
52535;BME280;38443;53.164;5.802;2022-11-20T10:09:34;101235.38;;;-0.17;91.87
52535;BME280;38443;53.164;5.802;2022-11-20T10:12:11;101233.84;;;-0.08;92.37
52535;BME280;38443;53.164;5.802;2022-11-20T10:23:08;101232.41;;;0.10;90.78
52535;BME280;38443;53.164;5.802;2022-11-20T10:25:51;101227.19;;;0.11;91.28
52535;BME280;38443;53.164;5.802;2022-11-20T10:28:27;101216.63;;;0.10;90.50
52535;BME280;38443;53.164;5.802;2022-11-20T10:31:12;101224.53;;;0.11;91.16
52535;BME280;38443;53.164;5.802;2022-11-20T10:33:41;101217.66;;;0.18;90.59
52535;BME280;38443;53.164;5.802;2022-11-20T10:36:16;101211.63;;;0.24;91.03
52535;BME280;38443;53.164;5.802;2022-11-20T10:38:50;101204.84;;;0.36;90.40
52535;BME280;38443;53.164;5.802;2022-11-20T10:41:22;101200.72;;;0.51;90.54
52535;BME280;38443;53.164;5.802;2022-11-20T10:44:09;101202.81;;;0.70;90.68
52535;BME280;38443;53.164;5.802;2022-11-20T10:46:43;101199.38;;;0.74;88.83
52535;BME280;38443;53.164;5.802;2022-11-20T10:49:17;101200.97;;;0.68;87.81
52535;BME280;38443;53.164;5.802;2022-11-20T10:52:42;101194.78;;;0.64;86.56
52535;BME280;38443;53.164;5.802;2022-11-20T10:54:47;101188.69;;;0.67;87.43
52535;BME280;38443;53.164;5.802;2022-11-20T10:57:29;101184.22;;;0.64;86.89
52535;BME280;38443;53.164;5.802;2022-11-20T11:00:05;101184.28;;;0.66;87.22
52535;BME280;38443;53.164;5.802;2022-11-20T11:02:43;101188.56;;;0.59;86.75
52535;BME280;38443;53.164;5.802;2022-11-20T11:05:22;101177.16;;;0.60;86.88
52535;BME280;38443;53.164;5.802;2022-11-20T11:07:50;101163.09;;;0.59;86.79
52535;BME280;38443;53.164;5.802;2022-11-20T11:10:22;101169.25;;;0.58;86.66
52535;BME280;38443;53.164;5.802;2022-11-20T11:12:49;101163.16;;;0.63;86.74
52535;BME280;38443;53.164;5.802;2022-11-20T11:17:50;101161.38;;;0.62;85.64
52535;BME280;38443;53.164;5.802;2022-11-20T11:20:17;101156.16;;;0.65;83.71
52535;BME280;38443;53.164;5.802;2022-11-20T11:25:29;101140.47;;;0.71;81.29
52535;BME280;38443;53.164;5.802;2022-11-20T11:27:58;101137.03;;;0.76;79.02
52535;BME280;38443;53.164;5.802;2022-11-20T11:30:25;101138.84;;;0.82;78.76
52535;BME280;38443;53.164;5.802;2022-11-20T11:33:02;101144.03;;;0.76;72.80
52535;BME280;38443;53.164;5.802;2022-11-20T11:35:28;101140.56;;;0.77;72.50
52535;BME280;38443;53.164;5.802;2022-11-20T11:38:02;101129.25;;;0.86;71.15
52535;BME280;38443;53.164;5.802;2022-11-20T11:40:28;101122.44;;;1.00;73.62
52535;BME280;38443;53.164;5.802;2022-11-20T11:42:58;101123.47;;;1.11;73.60
52535;BME280;38443;53.164;5.802;2022-11-20T11:45:24;101114.81;;;1.22;73.33
52535;BME280;38443;53.164;5.802;2022-11-20T11:47:51;101109.59;;;1.25;68.65
52535;BME280;38443;53.164;5.802;2022-11-20T11:50:22;101108.69;;;1.24;69.73
52535;BME280;38443;53.164;5.802;2022-11-20T11:53:01;101120.13;;;1.23;71.12
52535;BME280;38443;53.164;5.802;2022-11-20T11:55:37;101116.53;;;1.18;68.79
52535;BME280;38443;53.164;5.802;2022-11-20T12:00:50;101116.44;;;1.09;70.36
52535;BME280;38443;53.164;5.802;2022-11-20T12:03:38;101115.50;;;1.05;69.89
52535;BME280;38443;53.164;5.802;2022-11-20T12:06:11;101111.91;;;0.98;70.60
52535;BME280;38443;53.164;5.802;2022-11-20T12:11:28;101106.56;;;0.95;70.97
52535;BME280;38443;53.164;5.802;2022-11-20T12:14:02;101103.94;;;0.95;71.90
52535;BME280;38443;53.164;5.802;2022-11-20T12:16:34;101104.00;;;0.98;71.32
52535;BME280;38443;53.164;5.802;2022-11-20T12:19:00;101089.97;;;1.01;73.06
52535;BME280;38443;53.164;5.802;2022-11-20T12:21:39;101084.72;;;1.04;73.00
52535;BME280;38443;53.164;5.802;2022-11-20T12:29:45;101063.56;;;0.99;74.33
52535;BME280;38443;53.164;5.802;2022-11-20T12:35:01;101057.34;;;0.93;71.88
52535;BME280;38443;53.164;5.802;2022-11-20T12:40:28;101043.19;;;0.85;71.32
52535;BME280;38443;53.164;5.802;2022-11-20T12:43:06;101037.84;;;0.78;71.52
52535;BME280;38443;53.164;5.802;2022-11-20T12:46:04;101036.03;;;0.76;71.69
52535;BME280;38443;53.164;5.802;2022-11-20T12:48:38;101035.16;;;0.77;72.69
52535;BME280;38443;53.164;5.802;2022-11-20T12:54:11;101028.19;;;0.82;73.29
52535;BME280;38443;53.164;5.802;2022-11-20T12:56:53;101022.03;;;0.80;71.84
52535;BME280;38443;53.164;5.802;2022-11-20T13:02:41;101019.44;;;0.83;72.14
52535;BME280;38443;53.164;5.802;2022-11-20T13:05:18;101014.19;;;0.85;71.86
52535;BME280;38443;53.164;5.802;2022-11-20T13:07:46;101015.09;;;0.87;72.32
52535;BME280;38443;53.164;5.802;2022-11-20T13:10:26;100999.31;;;0.88;73.13
52535;BME280;38443;53.164;5.802;2022-11-20T13:13:03;101002.84;;;0.89;73.04
52535;BME280;38443;53.164;5.802;2022-11-20T13:18:14;100991.44;;;0.91;74.00
52535;BME280;38443;53.164;5.802;2022-11-20T13:20:43;100984.38;;;0.89;72.41
52535;BME280;38443;53.164;5.802;2022-11-20T13:23:09;100984.41;;;0.90;74.57
52535;BME280;38443;53.164;5.802;2022-11-20T13:25:37;100976.47;;;0.89;73.21
52535;BME280;38443;53.164;5.802;2022-11-20T13:30:34;100965.03;;;0.87;73.28
52535;BME280;38443;53.164;5.802;2022-11-20T13:33:25;100958.88;;;0.86;73.35
52535;BME280;38443;53.164;5.802;2022-11-20T13:36:19;100958.00;;;0.87;74.77
52535;BME280;38443;53.164;5.802;2022-11-20T13:38:52;100955.31;;;0.81;74.12
52535;BME280;38443;53.164;5.802;2022-11-20T13:41:34;100944.72;;;0.78;75.30
52535;BME280;38443;53.164;5.802;2022-11-20T13:46:46;100931.44;;;0.69;75.77
52535;BME280;38443;53.164;5.802;2022-11-20T13:49:23;100933.19;;;0.70;76.31
52535;BME280;38443;53.164;5.802;2022-11-20T13:51:51;100927.06;;;0.69;77.55
52535;BME280;38443;53.164;5.802;2022-11-20T14:00:18;100923.47;;;0.63;77.12
52535;BME280;38443;53.164;5.802;2022-11-20T14:03:18;100924.38;;;0.65;77.82
52535;BME280;38443;53.164;5.802;2022-11-20T14:06:01;100919.94;;;0.61;75.85
52535;BME280;38443;53.164;5.802;2022-11-20T14:11:18;100914.63;;;0.57;78.17
52535;BME280;38443;53.164;5.802;2022-11-20T14:14:04;100913.69;;;0.52;78.04